KPVD/PVD METAR and TAF weather

Enter ICAO airport designator
Station Type Date Time Source
KPVD METAR 2022/01/29 09:51 UTC NOAA

KPVD 290951Z 01021G29KT 1/2SM R05/P6000FT SN FZFG VV010 M03/M04 A2972 RMK AO2 PK WND 01032/0936 TWR VIS 1 SLP064 P0001 T10331039 $


Station Type Date Time Source
KPVD Decoded METAR 2022/01/29 09:51 UTC NOAA

PROVIDENCE GREEN STATE AIRPORT , RI, United States (KPVD) 41-44N 071-26W 16M
Jan 29, 2022 - 04:51 AM EST / 2022.01.29 0951 UTC
Wind: from the N (010 degrees) at 24 MPH (21 KT) gusting to 33 MPH (29 KT):0
Visibility: 1/2 mile(s):0
Sky conditions: obscured
Weather: snow; freezing fog
Precipitation last hour: 0.01 inches
Temperature: 26.1 F (-3.3 C)
Windchill: 10 F (-12 C):1
Dew Point: 25.0 F (-3.9 C)
Relative Humidity: 95%
Pressure (altimeter): 29.72 in. Hg (1006 hPa)
ob: KPVD 290951Z 01021G29KT 1/2SM R05/P6000FT SN FZFG VV010 M03/M04 A2972 RMK AO2 PK WND 01032/0936 TWR VIS 1 SLP064 P0001 T10331039
cycle: 10

Station Type Date Time Source
KPVD TAF 2022/01/29 06:42 UTC NOAA

TAF KPVD 290541Z 2906/3006 02013KT 3/4SM -SN OVC010
FM290700 01019G34KT 1/2SM SN OVC007
FM291200 35023G40KT 1/4SM +SN OVC006
FM300000 34020G39KT 3/4SM -SN OVC015
FM300200 32017G34KT 4SM BLSN OVC030
FM300500 31014G29KT 6SM BLSN BKN090

Example: see airport list